sensor_id;sensor_type;location;lat;lon;timestamp;temperature;humidity
19033;DHT22;9649;51.042;13.804;2023-02-21T00:00:07;10.90;99.90
19033;DHT22;9649;51.042;13.804;2023-02-21T00:05:28;10.90;1.00
19033;DHT22;9649;51.042;13.804;2023-02-21T00:10:49;10.90;99.90
19033;DHT22;9649;51.042;13.804;2023-02-21T00:16:14;10.90;99.90
19033;DHT22;9649;51.042;13.804;2023-02-21T00:21:34;10.90;1.00
19033;DHT22;9649;51.042;13.804;2023-02-21T00:26:56;10.90;99.90
19033;DHT22;9649;51.042;13.804;2023-02-21T00:32:16;10.80;99.90
19033;DHT22;9649;51.042;13.804;2023-02-21T00:37:37;10.70;1.00
19033;DHT22;9649;51.042;13.804;2023-02-21T00:42:58;10.80;99.90
19033;DHT22;9649;51.042;13.804;2023-02-21T00:48:19;10.70;1.00
19033;DHT22;9649;51.042;13.804;2023-02-21T00:53:39;10.60;1.00
19033;DHT22;9649;51.042;13.804;2023-02-21T00:59:01;10.60;1.00
19033;DHT22;9649;51.042;13.804;2023-02-21T01:04:22;10.70;1.00
19033;DHT22;9649;51.042;13.804;2023-02-21T01:09:42;10.60;99.90
19033;DHT22;9649;51.042;13.804;2023-02-21T01:15:04;10.70;10.30
19033;DHT22;9649;51.042;13.804;2023-02-21T01:20:25;10.70;1.00
19033;DHT22;9649;51.042;13.804;2023-02-21T01:25:46;10.70;1.00
19033;DHT22;9649;51.042;13.804;2023-02-21T01:31:07;10.70;99.90
19033;DHT22;9649;51.042;13.804;2023-02-21T01:36:28;10.70;1.00
19033;DHT22;9649;51.042;13.804;2023-02-21T01:41:48;10.70;99.90
19033;DHT22;9649;51.042;13.804;2023-02-21T01:47:10;10.70;99.90
19033;DHT22;9649;51.042;13.804;2023-02-21T01:52:31;10.80;1.00
19033;DHT22;9649;51.042;13.804;2023-02-21T01:57:53;10.70;26.10
19033;DHT22;9649;51.042;13.804;2023-02-21T02:03:18;10.80;1.00
19033;DHT22;9649;51.042;13.804;2023-02-21T02:08:39;10.80;99.90
19033;DHT22;9649;51.042;13.804;2023-02-21T02:14:13;10.80;99.90
19033;DHT22;9649;51.042;13.804;2023-02-21T02:19:42;10.80;99.90
19033;DHT22;9649;51.042;13.804;2023-02-21T02:25:15;10.90;99.90
19033;DHT22;9649;51.042;13.804;2023-02-21T02:30:42;10.80;1.00
19033;DHT22;9649;51.042;13.804;2023-02-21T02:35:50;10.90;1.00
19033;DHT22;9649;51.042;13.804;2023-02-21T02:40:59;10.90;1.00
19033;DHT22;9649;51.042;13.804;2023-02-21T02:46:08;10.90;1.00
19033;DHT22;9649;51.042;13.804;2023-02-21T02:51:14;10.90;99.90
19033;DHT22;9649;51.042;13.804;2023-02-21T02:56:17;10.90;99.90
19033;DHT22;9649;51.042;13.804;2023-02-21T03:01:46;11.00;99.90
19033;DHT22;9649;51.042;13.804;2023-02-21T03:07:01;10.90;1.00
19033;DHT22;9649;51.042;13.804;2023-02-21T03:12:17;11.00;1.00
19033;DHT22;9649;51.042;13.804;2023-02-21T03:17:22;10.90;1.00
19033;DHT22;9649;51.042;13.804;2023-02-21T03:22:27;10.90;99.90
19033;DHT22;9649;51.042;13.804;2023-02-21T03:27:32;11.00;1.00
19033;DHT22;9649;51.042;13.804;2023-02-21T03:32:38;10.90;99.90
19033;DHT22;9649;51.042;13.804;2023-02-21T03:37:44;11.00;99.90
19033;DHT22;9649;51.042;13.804;2023-02-21T03:42:48;11.00;1.00
19033;DHT22;9649;51.042;13.804;2023-02-21T03:47:50;11.00;1.00
19033;DHT22;9649;51.042;13.804;2023-02-21T03:52:54;11.00;1.00
19033;DHT22;9649;51.042;13.804;2023-02-21T03:57:57;11.00;1.00
19033;DHT22;9649;51.042;13.804;2023-02-21T04:03:00;11.00;1.00
19033;DHT22;9649;51.042;13.804;2023-02-21T04:08:04;11.10;1.00
19033;DHT22;9649;51.042;13.804;2023-02-21T04:13:07;11.10;1.00
19033;DHT22;9649;51.042;13.804;2023-02-21T04:18:10;11.10;1.00
19033;DHT22;9649;51.042;13.804;2023-02-21T04:23:16;11.10;1.00
19033;DHT22;9649;51.042;13.804;2023-02-21T04:29:09;11.00;1.00
19033;DHT22;9649;51.042;13.804;2023-02-21T04:35:11;11.00;1.00
19033;DHT22;9649;51.042;13.804;2023-02-21T04:47:29;11.00;97.60
19033;DHT22;9649;51.042;13.804;2023-02-21T04:53:30;11.00;99.90
19033;DHT22;9649;51.042;13.804;2023-02-21T05:11:48;11.10;99.90
19033;DHT22;9649;51.042;13.804;2023-02-21T05:24:09;11.10;99.90
19033;DHT22;9649;51.042;13.804;2023-02-21T05:36:28;11.10;1.00
19033;DHT22;9649;51.042;13.804;2023-02-21T05:50:00;11.10;99.90
19033;DHT22;9649;51.042;13.804;2023-02-21T06:33:24;11.20;99.90
19033;DHT22;9649;51.042;13.804;2023-02-21T06:44:38;11.20;99.90
19033;DHT22;9649;51.042;13.804;2023-02-21T06:56:43;11.30;99.90
19033;DHT22;9649;51.042;13.804;2023-02-21T07:02:48;11.20;99.90
19033;DHT22;9649;51.042;13.804;2023-02-21T07:09:14;11.30;99.90
19033;DHT22;9649;51.042;13.804;2023-02-21T07:15:18;11.30;99.90
19033;DHT22;9649;51.042;13.804;2023-02-21T07:21:12;11.30;99.90
19033;DHT22;9649;51.042;13.804;2023-02-21T07:26:47;11.40;99.90
19033;DHT22;9649;51.042;13.804;2023-02-21T07:32:39;11.40;99.90
19033;DHT22;9649;51.042;13.804;2023-02-21T07:37:58;11.50;1.00
19033;DHT22;9649;51.042;13.804;2023-02-21T07:43:37;11.60;1.00
19033;DHT22;9649;51.042;13.804;2023-02-21T07:55:07;11.60;1.00
19033;DHT22;9649;51.042;13.804;2023-02-21T08:00:44;11.60;1.00
19033;DHT22;9649;51.042;13.804;2023-02-21T08:12:39;11.70;42.30
19033;DHT22;9649;51.042;13.804;2023-02-21T08:18:46;11.70;1.00
19033;DHT22;9649;51.042;13.804;2023-02-21T08:49:14;11.60;99.90
19033;DHT22;9649;51.042;13.804;2023-02-21T08:55:21;11.70;1.00
19033;DHT22;9649;51.042;13.804;2023-02-21T09:01:30;11.70;1.00
19033;DHT22;9649;51.042;13.804;2023-02-21T09:07:07;11.70;1.00
19033;DHT22;9649;51.042;13.804;2023-02-21T09:12:24;11.70;1.00
19033;DHT22;9649;51.042;13.804;2023-02-21T09:24:40;12.00;6.60
19033;DHT22;9649;51.042;13.804;2023-02-21T09:30:11;12.00;1.00
19033;DHT22;9649;51.042;13.804;2023-02-21T09:41:25;12.20;99.90
19033;DHT22;9649;51.042;13.804;2023-02-21T09:46:58;12.50;1.00
19033;DHT22;9649;51.042;13.804;2023-02-21T09:52:21;12.80;1.00
19033;DHT22;9649;51.042;13.804;2023-02-21T09:57:48;12.80;99.90
19033;DHT22;9649;51.042;13.804;2023-02-21T10:03:27;12.90;1.00
19033;DHT22;9649;51.042;13.804;2023-02-21T10:09:12;12.70;1.00
19033;DHT22;9649;51.042;13.804;2023-02-21T10:15:15;12.80;99.90
19033;DHT22;9649;51.042;13.804;2023-02-21T10:21:14;12.80;1.00
19033;DHT22;9649;51.042;13.804;2023-02-21T10:26:38;12.90;1.00
19033;DHT22;9649;51.042;13.804;2023-02-21T10:38:26;12.70;99.90
19033;DHT22;9649;51.042;13.804;2023-02-21T10:43:45;12.80;99.90
19033;DHT22;9649;51.042;13.804;2023-02-21T10:49:12;12.90;99.90
19033;DHT22;9649;51.042;13.804;2023-02-21T10:54:26;13.00;99.90
19033;DHT22;9649;51.042;13.804;2023-02-21T10:59:42;12.90;1.00
19033;DHT22;9649;51.042;13.804;2023-02-21T11:04:53;12.80;1.00
19033;DHT22;9649;51.042;13.804;2023-02-21T11:10:27;12.90;1.00
19033;DHT22;9649;51.042;13.804;2023-02-21T11:15:43;12.80;99.90
19033;DHT22;9649;51.042;13.804;2023-02-21T11:20:57;12.70;99.90
19033;DHT22;9649;51.042;13.804;2023-02-21T11:26:15;12.70;1.00
19033;DHT22;9649;51.042;13.804;2023-02-21T11:31:27;12.50;1.00
19033;DHT22;9649;51.042;13.804;2023-02-21T11:36:35;12.50;1.00
19033;DHT22;9649;51.042;13.804;2023-02-21T11:41:58;12.50;99.90
19033;DHT22;9649;51.042;13.804;2023-02-21T11:47:15;12.50;97.40
19033;DHT22;9649;51.042;13.804;2023-02-21T11:52:30;12.50;1.00
19033;DHT22;9649;51.042;13.804;2023-02-21T12:04:00;12.80;1.00
19033;DHT22;9649;51.042;13.804;2023-02-21T12:09:07;12.60;1.00
19033;DHT22;9649;51.042;13.804;2023-02-21T12:14:45;12.60;1.00
19033;DHT22;9649;51.042;13.804;2023-02-21T12:20:36;12.50;99.90
19033;DHT22;9649;51.042;13.804;2023-02-21T12:26:42;12.40;1.00
19033;DHT22;9649;51.042;13.804;2023-02-21T12:45:34;12.80;1.00
19033;DHT22;9649;51.042;13.804;2023-02-21T12:51:44;13.00;99.90
19033;DHT22;9649;51.042;13.804;2023-02-21T13:43:24;12.90;1.00
19033;DHT22;9649;51.042;13.804;2023-02-21T13:52:23;12.70;99.90
19033;DHT22;9649;51.042;13.804;2023-02-21T14:38:55;12.70;99.90
19033;DHT22;9649;51.042;13.804;2023-02-21T14:51:57;12.60;99.90
19033;DHT22;9649;51.042;13.804;2023-02-21T15:03:53;12.80;1.00
19033;DHT22;9649;51.042;13.804;2023-02-21T15:10:10;12.80;1.00
19033;DHT22;9649;51.042;13.804;2023-02-21T15:21:55;12.70;83.80
19033;DHT22;9649;51.042;13.804;2023-02-21T15:33:14;12.40;99.90
19033;DHT22;9649;51.042;13.804;2023-02-21T15:38:25;12.40;99.90
19033;DHT22;9649;51.042;13.804;2023-02-21T15:43:36;12.40;1.00
19033;DHT22;9649;51.042;13.804;2023-02-21T15:48:40;12.40;1.00
19033;DHT22;9649;51.042;13.804;2023-02-21T15:54:07;12.40;1.00
19033;DHT22;9649;51.042;13.804;2023-02-21T15:59:15;12.30;99.90
19033;DHT22;9649;51.042;13.804;2023-02-21T16:04:21;12.20;99.90
19033;DHT22;9649;51.042;13.804;2023-02-21T16:09:28;12.20;99.90
19033;DHT22;9649;51.042;13.804;2023-02-21T16:14:37;12.20;15.00
19033;DHT22;9649;51.042;13.804;2023-02-21T16:19:42;12.10;1.00
19033;DHT22;9649;51.042;13.804;2023-02-21T16:24:49;12.10;99.90
19033;DHT22;9649;51.042;13.804;2023-02-21T16:30:10;12.10;99.90
19033;DHT22;9649;51.042;13.804;2023-02-21T16:35:15;12.00;99.90
19033;DHT22;9649;51.042;13.804;2023-02-21T16:40:25;12.00;99.90
19033;DHT22;9649;51.042;13.804;2023-02-21T16:45:29;12.00;1.00
19033;DHT22;9649;51.042;13.804;2023-02-21T16:50:36;11.90;17.20
19033;DHT22;9649;51.042;13.804;2023-02-21T16:55:41;12.00;1.00
19033;DHT22;9649;51.042;13.804;2023-02-21T17:00:44;11.90;99.90
19033;DHT22;9649;51.042;13.804;2023-02-21T17:05:49;12.00;99.90
19033;DHT22;9649;51.042;13.804;2023-02-21T17:10:53;12.00;1.00
19033;DHT22;9649;51.042;13.804;2023-02-21T17:15:56;11.90;1.00
19033;DHT22;9649;51.042;13.804;2023-02-21T17:20:59;11.90;1.00
19033;DHT22;9649;51.042;13.804;2023-02-21T17:26:04;11.90;1.00
19033;DHT22;9649;51.042;13.804;2023-02-21T17:31:06;11.90;1.00
19033;DHT22;9649;51.042;13.804;2023-02-21T17:36:15;11.70;1.00
19033;DHT22;9649;51.042;13.804;2023-02-21T17:41:19;11.80;1.00
19033;DHT22;9649;51.042;13.804;2023-02-21T17:46:22;11.80;1.00
19033;DHT22;9649;51.042;13.804;2023-02-21T17:51:25;11.70;29.70
19033;DHT22;9649;51.042;13.804;2023-02-21T17:56:29;11.60;99.90
19033;DHT22;9649;51.042;13.804;2023-02-21T18:01:32;11.70;99.90
19033;DHT22;9649;51.042;13.804;2023-02-21T18:06:35;11.70;99.90
19033;DHT22;9649;51.042;13.804;2023-02-21T18:11:39;11.70;5.60
19033;DHT22;9649;51.042;13.804;2023-02-21T18:16:41;11.70;1.00
19033;DHT22;9649;51.042;13.804;2023-02-21T18:21:44;11.60;49.00
19033;DHT22;9649;51.042;13.804;2023-02-21T18:26:49;11.70;1.00
19033;DHT22;9649;51.042;13.804;2023-02-21T18:31:52;11.60;99.90
19033;DHT22;9649;51.042;13.804;2023-02-21T18:36:55;11.50;99.90
19033;DHT22;9649;51.042;13.804;2023-02-21T18:41:59;11.60;99.90
19033;DHT22;9649;51.042;13.804;2023-02-21T18:47:02;11.50;99.90
19033;DHT22;9649;51.042;13.804;2023-02-21T18:52:05;11.40;13.70
19033;DHT22;9649;51.042;13.804;2023-02-21T18:57:10;11.50;99.90
19033;DHT22;9649;51.042;13.804;2023-02-21T19:02:14;11.50;1.00
19033;DHT22;9649;51.042;13.804;2023-02-21T19:07:17;11.50;99.90
19033;DHT22;9649;51.042;13.804;2023-02-21T19:12:21;11.50;1.00
19033;DHT22;9649;51.042;13.804;2023-02-21T19:17:24;11.40;1.00
19033;DHT22;9649;51.042;13.804;2023-02-21T19:22:27;11.40;99.90
19033;DHT22;9649;51.042;13.804;2023-02-21T19:27:32;11.40;1.00
19033;DHT22;9649;51.042;13.804;2023-02-21T21:16:31;11.00;1.00
19033;DHT22;9649;51.042;13.804;2023-02-21T21:21:37;10.90;1.00
19033;DHT22;9649;51.042;13.804;2023-02-21T21:38:19;10.80;1.00
19033;DHT22;9649;51.042;13.804;2023-02-21T21:43:48;10.90;1.00
19033;DHT22;9649;51.042;13.804;2023-02-21T21:49:28;10.90;99.90
19033;DHT22;9649;51.042;13.804;2023-02-21T21:54:58;11.00;1.00
19033;DHT22;9649;51.042;13.804;2023-02-21T23:19:17;10.30;99.90
19033;DHT22;9649;51.042;13.804;2023-02-21T23:25:04;10.30;99.90
19033;DHT22;9649;51.042;13.804;2023-02-21T23:30:48;10.20;99.90
19033;DHT22;9649;51.042;13.804;2023-02-21T23:49:32;10.20;1.00
19033;DHT22;9649;51.042;13.804;2023-02-21T23:55:41;10.10;99.90
